sensor_id;sensor_type;location;lat;lon;timestamp;pressure;altitude;pressure_sealevel;temperature;humidity
50087;BME280;35967;50.718;7.050;2023-03-15T00:07:33;100466.00;;;3.58;77.30
50087;BME280;35967;50.718;7.050;2023-03-15T00:17:37;100470.34;;;3.87;76.20
50087;BME280;35967;50.718;7.050;2023-03-15T00:27:42;100483.84;;;3.67;76.66
50087;BME280;35967;50.718;7.050;2023-03-15T00:37:47;100476.22;;;3.66;77.06
50087;BME280;35967;50.718;7.050;2023-03-15T00:47:52;100480.47;;;3.67;77.85
50087;BME280;35967;50.718;7.050;2023-03-15T00:57:55;100487.25;;;3.66;78.47
50087;BME280;35967;50.718;7.050;2023-03-15T01:08:00;100488.13;;;3.79;78.48
50087;BME280;35967;50.718;7.050;2023-03-15T01:18:04;100484.72;;;3.69;77.55
50087;BME280;35967;50.718;7.050;2023-03-15T01:28:08;100493.19;;;3.65;77.79
50087;BME280;35967;50.718;7.050;2023-03-15T01:38:12;100500.84;;;3.73;78.01
50087;BME280;35967;50.718;7.050;2023-03-15T01:48:16;100500.06;;;3.94;78.21
50087;BME280;35967;50.718;7.050;2023-03-15T01:58:23;100507.66;;;3.82;78.87
50087;BME280;35967;50.718;7.050;2023-03-15T02:08:32;100505.19;;;4.09;78.27
50087;BME280;35967;50.718;7.050;2023-03-15T02:18:40;100511.13;;;3.96;79.04
50087;BME280;35967;50.718;7.050;2023-03-15T02:28:45;100506.88;;;4.03;79.47
50087;BME280;35967;50.718;7.050;2023-03-15T02:38:50;100506.06;;;4.15;81.02
50087;BME280;35967;50.718;7.050;2023-03-15T02:48:54;100550.19;;;4.01;83.30
50087;BME280;35967;50.718;7.050;2023-03-15T02:58:58;100534.59;;;3.30;89.35
50087;BME280;35967;50.718;7.050;2023-03-15T03:09:03;100533.50;;;2.92;92.35
50087;BME280;35967;50.718;7.050;2023-03-15T03:19:06;100547.84;;;2.82;95.64
50087;BME280;35967;50.718;7.050;2023-03-15T03:29:12;100558.13;;;2.98;95.94
50087;BME280;35967;50.718;7.050;2023-03-15T03:39:21;100564.81;;;2.87;95.69
50087;BME280;35967;50.718;7.050;2023-03-15T03:49:26;100569.13;;;2.98;95.92
50087;BME280;35967;50.718;7.050;2023-03-15T03:59:29;100582.72;;;2.99;95.42
50087;BME280;35967;50.718;7.050;2023-03-15T04:09:39;100584.53;;;3.19;95.73
50087;BME280;35967;50.718;7.050;2023-03-15T04:19:43;100588.84;;;3.30;95.11
50087;BME280;35967;50.718;7.050;2023-03-15T04:29:53;100596.34;;;3.10;95.90
50087;BME280;35967;50.718;7.050;2023-03-15T04:40:18;100593.75;;;3.04;96.46
50087;BME280;35967;50.718;7.050;2023-03-15T04:50:43;100592.97;;;3.11;97.55
50087;BME280;35967;50.718;7.050;2023-03-15T05:00:55;100614.16;;;3.07;97.60
50087;BME280;35967;50.718;7.050;2023-03-15T05:11:19;100631.63;;;2.73;99.57
50087;BME280;35967;50.718;7.050;2023-03-15T05:21:41;100654.19;;;2.42;100.00
50087;BME280;35967;50.718;7.050;2023-03-15T05:32:17;100655.19;;;2.57;100.00
50087;BME280;35967;50.718;7.050;2023-03-15T05:42:43;100671.63;;;2.90;99.77
50087;BME280;35967;50.718;7.050;2023-03-15T05:53:06;100687.56;;;2.73;100.00
50087;BME280;35967;50.718;7.050;2023-03-15T06:03:28;100712.13;;;2.74;99.75
50087;BME280;35967;50.718;7.050;2023-03-15T06:13:43;100723.41;;;2.99;99.35
50087;BME280;35967;50.718;7.050;2023-03-15T06:23:57;100737.78;;;2.96;99.07
50087;BME280;35967;50.718;7.050;2023-03-15T06:34:02;100752.22;;;2.98;99.84
50087;BME280;35967;50.718;7.050;2023-03-15T06:44:07;100775.91;;;2.94;100.00
50087;BME280;35967;50.718;7.050;2023-03-15T06:54:13;100797.16;;;3.01;100.00
50087;BME280;35967;50.718;7.050;2023-03-15T07:04:17;100820.09;;;3.06;100.00
50087;BME280;35967;50.718;7.050;2023-03-15T07:14:22;100835.47;;;3.12;100.00
50087;BME280;35967;50.718;7.050;2023-03-15T07:24:25;100844.03;;;3.20;100.00
50087;BME280;35967;50.718;7.050;2023-03-15T07:34:30;100866.22;;;3.34;100.00
50087;BME280;35967;50.718;7.050;2023-03-15T07:44:33;100885.75;;;3.35;100.00
50087;BME280;35967;50.718;7.050;2023-03-15T07:54:37;100894.22;;;3.35;100.00
50087;BME280;35967;50.718;7.050;2023-03-15T08:04:41;100904.94;;;3.88;100.00
50087;BME280;35967;50.718;7.050;2023-03-15T08:14:47;100922.44;;;3.55;100.00
50087;BME280;35967;50.718;7.050;2023-03-15T08:24:50;100941.19;;;3.65;100.00
50087;BME280;35967;50.718;7.050;2023-03-15T08:34:56;100948.75;;;3.56;100.00
50087;BME280;35967;50.718;7.050;2023-03-15T08:44:59;100964.19;;;3.71;100.00
50087;BME280;35967;50.718;7.050;2023-03-15T08:55:05;100983.69;;;3.69;100.00
50087;BME280;35967;50.718;7.050;2023-03-15T09:05:09;100997.09;;;4.36;100.00
50087;BME280;35967;50.718;7.050;2023-03-15T09:15:15;101009.69;;;4.19;100.00
50087;BME280;35967;50.718;7.050;2023-03-15T09:25:20;101025.66;;;4.04;100.00
50087;BME280;35967;50.718;7.050;2023-03-15T09:35:25;101032.09;;;3.72;100.00
50087;BME280;35967;50.718;7.050;2023-03-15T09:45:37;101043.16;;;4.57;100.00
50087;BME280;35967;50.718;7.050;2023-03-15T09:55:45;101052.47;;;4.52;99.90
50087;BME280;35967;50.718;7.050;2023-03-15T10:05:54;101056.91;;;4.73;97.71
50087;BME280;35967;50.718;7.050;2023-03-15T10:16:07;101048.81;;;5.30;95.95
50087;BME280;35967;50.718;7.050;2023-03-15T10:26:14;101045.59;;;5.75;93.21
50087;BME280;35967;50.718;7.050;2023-03-15T10:36:23;101042.88;;;5.39;89.64
50087;BME280;35967;50.718;7.050;2023-03-15T10:46:26;101046.34;;;5.52;86.53
50087;BME280;35967;50.718;7.050;2023-03-15T10:56:34;101047.31;;;5.76;86.39
50087;BME280;35967;50.718;7.050;2023-03-15T11:06:42;101047.53;;;6.50;83.59
50087;BME280;35967;50.718;7.050;2023-03-15T11:16:49;101056.06;;;6.95;79.98
50087;BME280;35967;50.718;7.050;2023-03-15T11:26:55;101068.84;;;6.66;74.99
50087;BME280;35967;50.718;7.050;2023-03-15T11:37:09;101082.50;;;7.29;73.91
50087;BME280;35967;50.718;7.050;2023-03-15T11:47:22;101092.75;;;6.60;70.24
50087;BME280;35967;50.718;7.050;2023-03-15T11:57:44;101100.44;;;6.88;71.32
50087;BME280;35967;50.718;7.050;2023-03-15T12:07:59;101098.63;;;7.62;64.60
50087;BME280;35967;50.718;7.050;2023-03-15T12:18:04;101096.97;;;7.47;62.39
50087;BME280;35967;50.718;7.050;2023-03-15T12:28:16;101105.94;;;8.50;63.79
50087;BME280;35967;50.718;7.050;2023-03-15T12:38:23;101098.25;;;8.45;57.36
50087;BME280;35967;50.718;7.050;2023-03-15T12:48:27;101095.28;;;7.38;60.09
50087;BME280;35967;50.718;7.050;2023-03-15T12:58:35;101087.66;;;6.91;59.56
50087;BME280;35967;50.718;7.050;2023-03-15T13:08:45;101090.13;;;9.06;53.80
50087;BME280;35967;50.718;7.050;2023-03-15T13:18:58;101073.59;;;8.23;57.35
50087;BME280;35967;50.718;7.050;2023-03-15T13:29:11;101073.09;;;7.31;54.98
50087;BME280;35967;50.718;7.050;2023-03-15T13:39:19;101076.88;;;8.54;55.32
50087;BME280;35967;50.718;7.050;2023-03-15T13:49:29;101078.66;;;8.36;50.57
50087;BME280;35967;50.718;7.050;2023-03-15T13:59:37;101078.53;;;8.61;51.45
50087;BME280;35967;50.718;7.050;2023-03-15T14:09:44;101085.97;;;8.95;46.24
50087;BME280;35967;50.718;7.050;2023-03-15T14:19:53;101087.94;;;8.61;44.41
50087;BME280;35967;50.718;7.050;2023-03-15T14:29:59;101081.16;;;9.50;45.44
50087;BME280;35967;50.718;7.050;2023-03-15T14:40:11;101091.59;;;8.19;46.31
50087;BME280;35967;50.718;7.050;2023-03-15T14:50:18;101094.31;;;7.79;42.82
50087;BME280;35967;50.718;7.050;2023-03-15T15:00:24;101103.78;;;7.60;48.00
50087;BME280;35967;50.718;7.050;2023-03-15T15:10:28;101107.16;;;7.74;47.09
50087;BME280;35967;50.718;7.050;2023-03-15T15:20:33;101112.25;;;7.76;46.85
50087;BME280;35967;50.718;7.050;2023-03-15T15:30:45;101114.84;;;7.71;46.54
50087;BME280;35967;50.718;7.050;2023-03-15T15:41:03;101102.88;;;7.66;47.57
50087;BME280;35967;50.718;7.050;2023-03-15T15:51:38;101096.09;;;7.52;47.84
50087;BME280;35967;50.718;7.050;2023-03-15T16:01:59;101090.13;;;7.52;48.90
50087;BME280;35967;50.718;7.050;2023-03-15T16:12:18;101091.00;;;7.38;48.58
50087;BME280;35967;50.718;7.050;2023-03-15T16:22:46;101087.59;;;7.41;50.99
50087;BME280;35967;50.718;7.050;2023-03-15T16:33:05;101083.31;;;7.43;51.14
50087;BME280;35967;50.718;7.050;2023-03-15T16:43:26;101097.84;;;7.36;51.38
50087;BME280;35967;50.718;7.050;2023-03-15T16:53:34;101106.41;;;7.24;51.03
50087;BME280;35967;50.718;7.050;2023-03-15T17:04:00;101119.19;;;7.17;51.33
50087;BME280;35967;50.718;7.050;2023-03-15T17:14:34;101139.69;;;7.12;52.39
50087;BME280;35967;50.718;7.050;2023-03-15T17:25:08;101144.81;;;7.04;54.69
50087;BME280;35967;50.718;7.050;2023-03-15T17:35:48;101138.84;;;6.96;56.83
50087;BME280;35967;50.718;7.050;2023-03-15T17:46:07;101151.59;;;6.79;57.82
50087;BME280;35967;50.718;7.050;2023-03-15T17:56:30;101157.56;;;6.64;58.53
50087;BME280;35967;50.718;7.050;2023-03-15T18:06:47;101160.94;;;6.60;59.56
50087;BME280;35967;50.718;7.050;2023-03-15T18:17:10;101159.22;;;6.53;60.25
50087;BME280;35967;50.718;7.050;2023-03-15T18:27:25;101163.47;;;6.43;60.49
50087;BME280;35967;50.718;7.050;2023-03-15T18:37:36;101173.69;;;6.37;61.07
50087;BME280;35967;50.718;7.050;2023-03-15T18:47:45;101186.41;;;6.24;61.70
50087;BME280;35967;50.718;7.050;2023-03-15T18:58:00;101192.28;;;6.05;62.67
50087;BME280;35967;50.718;7.050;2023-03-15T19:08:21;101187.31;;;6.37;61.50
50087;BME280;35967;50.718;7.050;2023-03-15T19:18:57;101187.25;;;6.20;61.54
50087;BME280;35967;50.718;7.050;2023-03-15T19:29:08;101188.94;;;6.18;63.19
50087;BME280;35967;50.718;7.050;2023-03-15T19:39:21;101193.19;;;6.21;63.90
50087;BME280;35967;50.718;7.050;2023-03-15T19:49:32;101196.53;;;6.04;64.26
50087;BME280;35967;50.718;7.050;2023-03-15T19:59:48;101199.03;;;5.98;63.01
50087;BME280;35967;50.718;7.050;2023-03-15T20:10:21;101205.75;;;5.83;63.59
50087;BME280;35967;50.718;7.050;2023-03-15T20:20:34;101200.53;;;5.63;64.35
50087;BME280;35967;50.718;7.050;2023-03-15T20:30:53;101210.66;;;5.57;64.44
50087;BME280;35967;50.718;7.050;2023-03-15T20:41:28;101211.69;;;5.78;67.47
50087;BME280;35967;50.718;7.050;2023-03-15T20:51:46;101223.44;;;5.52;64.99
50087;BME280;35967;50.718;7.050;2023-03-15T21:02:11;101219.13;;;5.50;64.23
50087;BME280;35967;50.718;7.050;2023-03-15T21:13:11;101219.50;;;4.95;69.16
50087;BME280;35967;50.718;7.050;2023-03-15T21:23:26;101207.59;;;4.95;70.71
50087;BME280;35967;50.718;7.050;2023-03-15T21:33:46;101197.22;;;4.80;68.96
50087;BME280;35967;50.718;7.050;2023-03-15T21:44:40;101196.34;;;4.78;67.82
50087;BME280;35967;50.718;7.050;2023-03-15T21:55:20;101190.91;;;4.45;66.10
50087;BME280;35967;50.718;7.050;2023-03-15T22:05:34;101186.69;;;4.49;66.49
50087;BME280;35967;50.718;7.050;2023-03-15T22:15:51;101189.91;;;4.34;66.78
50087;BME280;35967;50.718;7.050;2023-03-15T22:26:04;101182.31;;;4.38;66.94
50087;BME280;35967;50.718;7.050;2023-03-15T22:36:11;101167.72;;;4.23;67.20
50087;BME280;35967;50.718;7.050;2023-03-15T22:46:31;101173.59;;;4.21;67.50
50087;BME280;35967;50.718;7.050;2023-03-15T22:57:00;101166.72;;;4.12;67.30
50087;BME280;35967;50.718;7.050;2023-03-15T23:07:23;101160.00;;;4.19;68.15
50087;BME280;35967;50.718;7.050;2023-03-15T23:17:39;101163.28;;;4.10;67.75
50087;BME280;35967;50.718;7.050;2023-03-15T23:27:51;101160.66;;;4.05;68.20
50087;BME280;35967;50.718;7.050;2023-03-15T23:38:17;101164.72;;;3.91;68.15
50087;BME280;35967;50.718;7.050;2023-03-15T23:48:28;101163.81;;;3.84;68.25
50087;BME280;35967;50.718;7.050;2023-03-15T23:58:52;101190.19;;;3.91;68.66
